Mekoryuk Airport Mekoryuk US
ICAO: PAMY
IATA:
Category: Medium
Scheduled Services:

Elevation: 48 ft
TransAlt. 18000 ft.

Airport Communications:
AWOS 3:123.9
ANCHORAGE CNTR:124.5
CTAF:122.9
KENAI RDO:122
TWEB:32.3

PAMY Zoom In..

If you have problems with the map follow the link
https://www.worldairports.se/pages/airport.php?
ICAO=PAMY

Runways:

(A) RW 05 length 3070 ft width 75 ft
---- / hdg 54

(B) RW 23 length 3070 ft width 75 ft
---- / hdg 234

Location; PAMY
Day. 24 / Time. 20.30 Zulu
* Altimeter: 30.32
* Temperature: -18° c. 0.4°f.
* Wind from: 130° Speed 17 kn.
Dewpoint: -19° c.
Visibility: 1 m.
Clouds: Broken 2300 ft.
Clouds: Overcast 2800 ft.
Conditions: Light Snow.Conditions: Mist.

PAMY 242030Z AUTO 13017KT 1 1/4SM -SN BR BKN023 OVC028 M18/M19 A3032 RMK AO2 P0000 FZRANO


Wind From 130°
Speed 17 kn.

 
 
jpsmedia.com for Web Design worldairports.se 2018   terms of use